Time;durP1;ratioP1;P1;durP2;ratioP2;P2;SDS_P1;SDS_P2;PMS_P1;PMS_P2;Temp;Humidity;BMP_temperature;BMP_pressure;BME280_temperature;BME280_humidity;BME280_pressure;Samples;Min_cycle;Max_cycle;Signal;HPM_P1;HPM_P2
2023/04/24 00:01:57;;;;;;;;;;;11.76;45.52;;;;;;2673396;76;20312;-91
2023/04/24 00:05:25;;;;;;;;;;;11.77;45.11;;;;;;2673052;76;20465;-91
2023/04/24 00:08:53;;;;;;;;;;;11.81;44.99;;;;;;2671247;76;20444;-90
2023/04/24 00:12:21;;;;;;;;;;;11.87;44.89;;;;;;2673478;76;20946;-91
2023/04/24 00:15:49;;;;;;;;;;;11.89;44.17;;;;;;2672650;76;20983;-90
2023/04/24 00:19:21;;;;;;;;;;;11.84;43.83;;;;;;2673061;76;20465;-91
2023/04/24 00:22:47;;;;;;;;;;;11.87;43.62;;;;;;2673313;76;20355;-91
2023/04/24 00:26:15;;;;;;;;;;;11.88;43.47;;;;;;2673058;76;20373;-90
2023/04/24 00:29:43;;;;;;;;;;;11.88;43.00;;;;;;2672855;76;20437;-92
2023/04/24 00:33:11;;;;;;;;;;;11.81;42.73;;;;;;2673140;76;20329;-90
2023/04/24 00:36:40;;;;;;;;;;;11.77;42.57;;;;;;2673344;76;20359;-91
2023/04/24 00:40:08;;;;;;;;;;;11.77;42.84;;;;;;2673957;76;20421;-92
2023/04/24 00:43:36;;;;;;;;;;;11.77;42.56;;;;;;2676804;76;20661;-92
2023/04/24 00:47:04;;;;;;;;;;;11.74;42.25;;;;;;2676741;76;20659;-92
2023/04/24 00:50:33;;;;;;;;;;;11.73;42.46;;;;;;2676262;76;20318;-93
2023/04/24 00:54:01;;;;;;;;;;;11.69;42.42;;;;;;2677482;76;20437;-91
2023/04/24 00:57:29;;;;;;;;;;;11.68;42.46;;;;;;2678244;76;20431;-92
2023/04/24 01:00:57;;;;;;;;;;;11.66;42.39;;;;;;2680388;76;20440;-91
2023/04/24 01:04:26;;;;;;;;;;;11.67;42.20;;;;;;2681465;76;20627;-92
2023/04/24 01:07:54;;;;;;;;;;;11.63;41.97;;;;;;2678327;76;20916;-91
2023/04/24 01:11:22;;;;;;;;;;;11.60;42.20;;;;;;2675174;76;20455;-91
2023/04/24 01:14:50;;;;;;;;;;;11.54;42.23;;;;;;2674009;76;21004;-91
2023/04/24 01:18:18;;;;;;;;;;;11.47;42.27;;;;;;2675661;76;20439;-91
2023/04/24 01:21:46;;;;;;;;;;;11.42;42.37;;;;;;2675994;76;21102;-91
2023/04/24 01:25:14;;;;;;;;;;;11.34;42.42;;;;;;2676347;76;21065;-91
2023/04/24 01:28:42;;;;;;;;;;;11.27;42.38;;;;;;2676497;76;20450;-91
2023/04/24 01:32:10;;;;;;;;;;;11.27;42.56;;;;;;2676685;76;20449;-91
2023/04/24 01:35:39;;;;;;;;;;;11.19;42.22;;;;;;2676798;76;20801;-91
2023/04/24 01:39:07;;;;;;;;;;;11.19;42.27;;;;;;2677388;76;20432;-91
2023/04/24 01:42:35;;;;;;;;;;;11.13;42.16;;;;;;2678743;76;20463;-91
2023/04/24 01:46:03;;;;;;;;;;;11.14;41.97;;;;;;2677249;76;20453;-91
2023/04/24 01:49:31;;;;;;;;;;;11.08;41.45;;;;;;2676577;76;20438;-91
2023/04/24 01:52:59;;;;;;;;;;;11.10;41.71;;;;;;2678109;76;20457;-91
2023/04/24 01:56:27;;;;;;;;;;;11.10;41.24;;;;;;2676815;76;20329;-91
2023/04/24 01:59:55;;;;;;;;;;;11.05;41.02;;;;;;2673964;76;20440;-91
2023/04/24 02:03:24;;;;;;;;;;;11.08;40.97;;;;;;2673332;76;20437;-91
2023/04/24 02:06:52;;;;;;;;;;;11.03;40.68;;;;;;2673205;76;21032;-91
2023/04/24 02:10:20;;;;;;;;;;;10.96;40.52;;;;;;2673631;76;20913;-91
2023/04/24 02:13:48;;;;;;;;;;;10.90;40.88;;;;;;2673262;76;20462;-91
2023/04/24 02:17:16;;;;;;;;;;;10.85;41.05;;;;;;2672828;76;20461;-91
2023/04/24 02:20:44;;;;;;;;;;;10.83;41.26;;;;;;2673210;76;20421;-91
2023/04/24 02:24:13;;;;;;;;;;;10.79;41.37;;;;;;2673369;76;20443;-91
2023/04/24 02:27:41;;;;;;;;;;;10.75;41.62;;;;;;2672894;76;20422;-90
2023/04/24 02:31:09;;;;;;;;;;;10.75;41.71;;;;;;2672764;76;20429;-90
2023/04/24 02:34:37;;;;;;;;;;;10.79;42.12;;;;;;2673334;76;20448;-89
2023/04/24 02:38:05;;;;;;;;;;;10.75;42.18;;;;;;2673461;76;20440;-90
2023/04/24 02:41:33;;;;;;;;;;;10.78;42.31;;;;;;2672859;76;20453;-91
2023/04/24 02:45:01;;;;;;;;;;;10.80;42.37;;;;;;2672680;76;20429;-90
2023/04/24 02:48:29;;;;;;;;;;;10.82;42.59;;;;;;2672705;76;20419;-89
2023/04/24 02:51:57;;;;;;;;;;;10.75;42.42;;;;;;2672793;76;20358;-91
2023/04/24 02:55:26;;;;;;;;;;;10.69;42.84;;;;;;2672312;76;20470;-91
2023/04/24 02:58:54;;;;;;;;;;;10.68;43.14;;;;;;2672587;76;20427;-90
2023/04/24 03:02:22;;;;;;;;;;;10.68;43.44;;;;;;2672793;76;20418;-91
2023/04/24 03:05:50;;;;;;;;;;;10.70;43.54;;;;;;2671955;76;20413;-91
2023/04/24 03:09:18;;;;;;;;;;;10.67;43.36;;;;;;2673991;76;20376;-91
2023/04/24 03:12:46;;;;;;;;;;;10.68;43.62;;;;;;2677631;76;20436;-91
2023/04/24 03:16:14;;;;;;;;;;;10.64;43.68;;;;;;2676855;76;20415;-91
2023/04/24 03:19:42;;;;;;;;;;;10.64;43.73;;;;;;2675073;76;20435;-90
2023/04/24 03:23:11;;;;;;;;;;;10.65;44.05;;;;;;2674786;76;20931;-91
2023/04/24 03:26:39;;;;;;;;;;;10.60;43.74;;;;;;2675198;76;21334;-90
2023/04/24 03:30:07;;;;;;;;;;;10.59;44.04;;;;;;2673414;76;20922;-90
2023/04/24 03:33:35;;;;;;;;;;;10.58;44.08;;;;;;2672598;76;20478;-90
2023/04/24 03:37:03;;;;;;;;;;;10.52;44.17;;;;;;2674523;76;20415;-90
2023/04/24 03:40:33;;;;;;;;;;;10.57;44.52;;;;;;2678030;76;20430;-91
2023/04/24 03:44:01;;;;;;;;;;;10.54;44.42;;;;;;2678127;76;20441;-91
2023/04/24 03:47:29;;;;;;;;;;;10.46;44.64;;;;;;2672998;76;20425;-92
2023/04/24 03:50:57;;;;;;;;;;;10.48;45.05;;;;;;2672876;76;20333;-92
2023/04/24 03:54:26;;;;;;;;;;;10.48;45.01;;;;;;2672381;76;20764;-92
2023/04/24 03:57:54;;;;;;;;;;;10.53;44.87;;;;;;2672218;76;20452;-92
2023/04/24 04:01:23;;;;;;;;;;;10.52;44.77;;;;;;2672715;76;20517;-93
2023/04/24 04:04:52;;;;;;;;;;;10.53;44.75;;;;;;2672746;76;20335;-94
2023/04/24 04:08:20;;;;;;;;;;;10.58;44.47;;;;;;2672613;76;21105;-93
2023/04/24 04:11:50;;;;;;;;;;;10.67;44.06;;;;;;2672676;76;20465;-92
2023/04/24 04:15:21;;;;;;;;;;;10.67;43.72;;;;;;2671806;76;20434;-93
2023/04/24 04:18:54;;;;;;;;;;;10.71;43.66;;;;;;2673392;76;20468;-93
2023/04/24 04:22:29;;;;;;;;;;;10.73;43.26;;;;;;2673001;76;20454;-93
2023/04/24 04:25:52;;;;;;;;;;;10.74;43.19;;;;;;2672588;76;20433;-93
2023/04/24 04:29:20;;;;;;;;;;;10.77;42.97;;;;;;2672612;76;20570;-92
2023/04/24 04:32:48;;;;;;;;;;;10.80;42.76;;;;;;2672228;76;20428;-92
2023/04/24 04:36:29;;;;;;;;;;;10.81;42.71;;;;;;2671947;76;20322;-93
2023/04/24 04:39:54;;;;;;;;;;;10.79;42.44;;;;;;2671110;76;20470;-95
2023/04/24 04:43:30;;;;;;;;;;;10.79;42.15;;;;;;2670975;76;20361;-94
2023/04/24 04:47:05;;;;;;;;;;;10.84;42.08;;;;;;2671806;76;20488;-93
2023/04/24 04:50:32;;;;;;;;;;;10.85;41.61;;;;;;2669957;76;20435;-93
2023/04/24 04:54:04;;;;;;;;;;;10.86;41.04;;;;;;2670529;76;20483;-93
2023/04/24 04:57:49;;;;;;;;;;;10.90;41.05;;;;;;2671973;76;20447;-94
2023/04/24 05:01:17;;;;;;;;;;;10.92;40.90;;;;;;2679790;76;21149;-96
2023/04/24 05:04:54;;;;;;;;;;;10.89;41.22;;;;;;2669986;76;20302;-93
2023/04/24 05:08:48;;;;;;;;;;;10.94;41.23;;;;;;2669451;76;20475;-93
2023/04/24 05:11:56;;;;;;;;;;;11.00;41.19;;;;;;2670933;76;20505;-93
2023/04/24 05:15:53;;;;;;;;;;;11.04;41.18;;;;;;2671272;76;20510;-95
2023/04/24 05:19:18;;;;;;;;;;;11.10;40.91;;;;;;2670877;76;20462;-93
2023/04/24 05:23:09;;;;;;;;;;;11.23;40.85;;;;;;2670045;76;20914;-95
2023/04/24 05:26:40;;;;;;;;;;;11.41;40.41;;;;;;2669454;76;20442;-93
2023/04/24 05:30:14;;;;;;;;;;;11.59;40.13;;;;;;2669950;76;20500;-93
2023/04/24 05:33:41;;;;;;;;;;;11.70;39.16;;;;;;2669304;76;20905;-93
2023/04/24 05:37:11;;;;;;;;;;;11.79;38.78;;;;;;2669381;76;20326;-93
2023/04/24 05:40:41;;;;;;;;;;;11.74;38.26;;;;;;2669149;76;20900;-93
2023/04/24 05:44:18;;;;;;;;;;;11.70;38.07;;;;;;2670216;76;20470;-93
2023/04/24 05:52:08;;;;;;;;;;;;;;;;;;;;;
2023/04/24 05:55:36;;;;;;;;;;;11.94;37.91;;;;;;2670312;76;20433;-93
2023/04/24 06:03:13;;;;;;;;;;;11.79;37.09;;;;;;2668191;76;20458;-95
2023/04/24 06:06:41;;;;;;;;;;;11.88;38.38;;;;;;2668683;76;20469;-93
2023/04/24 06:10:10;;;;;;;;;;;12.01;38.22;;;;;;2669085;76;20421;-94
2023/04/24 06:13:38;;;;;;;;;;;12.16;37.62;;;;;;2669395;76;20909;-92
2023/04/24 06:17:06;;;;;;;;;;;12.47;37.60;;;;;;2669851;76;20453;-94
2023/04/24 06:20:35;;;;;;;;;;;12.90;37.23;;;;;;2669794;76;20418;-93
2023/04/24 06:24:04;;;;;;;;;;;13.36;35.56;;;;;;2670459;76;20498;-93
2023/04/24 06:27:32;;;;;;;;;;;13.73;34.29;;;;;;2669625;76;20439;-94
2023/04/24 06:31:00;;;;;;;;;;;13.91;33.18;;;;;;2669600;76;20453;-94
2023/04/24 06:34:30;;;;;;;;;;;13.83;31.33;;;;;;2670357;76;20959;-91
2023/04/24 06:37:58;;;;;;;;;;;13.98;31.95;;;;;;2670292;76;20457;-91
2023/04/24 06:41:26;;;;;;;;;;;13.92;30.99;;;;;;2670319;76;20450;-92
2023/04/24 06:44:54;;;;;;;;;;;13.70;30.25;;;;;;2669757;76;20448;-92
2023/04/24 06:48:22;;;;;;;;;;;13.48;29.36;;;;;;2669780;76;20448;-92
2023/04/24 06:51:51;;;;;;;;;;;13.39;28.79;;;;;;2669992;76;20447;-91
2023/04/24 06:55:19;;;;;;;;;;;13.45;27.46;;;;;;2670608;76;20303;-92
2023/04/24 06:58:47;;;;;;;;;;;13.54;25.18;;;;;;2669888;76;20410;-91
2023/04/24 07:02:15;;;;;;;;;;;13.98;24.54;;;;;;2669486;76;20895;-92
2023/04/24 07:05:43;;;;;;;;;;;14.20;22.43;;;;;;2669362;76;20437;-92
2023/04/24 07:09:15;;;;;;;;;;;14.14;21.24;;;;;;2670456;76;20414;-92
2023/04/24 07:12:46;;;;;;;;;;;14.13;20.89;;;;;;2669768;76;20455;-92
2023/04/24 07:16:14;;;;;;;;;;;14.64;20.73;;;;;;2669771;76;20334;-92
2023/04/24 07:19:42;;;;;;;;;;;14.60;18.32;;;;;;2669888;76;20303;-91
2023/04/24 07:23:10;;;;;;;;;;;14.71;17.13;;;;;;2670069;76;20339;-92
2023/04/24 07:26:39;;;;;;;;;;;15.13;17.77;;;;;;2669458;76;20453;-92
2023/04/24 07:30:07;;;;;;;;;;;14.78;15.56;;;;;;2669982;76;20415;-94
2023/04/24 07:33:36;;;;;;;;;;;14.30;13.66;;;;;;2669687;76;20409;-92
2023/04/24 07:37:04;;;;;;;;;;;14.73;15.60;;;;;;2670070;76;20441;-91
2023/04/24 07:40:32;;;;;;;;;;;14.34;14.62;;;;;;2670182;76;20482;-91
2023/04/24 07:44:00;;;;;;;;;;;14.51;15.06;;;;;;2670143;76;20446;-91
2023/04/24 07:47:28;;;;;;;;;;;14.60;13.69;;;;;;2670026;76;20452;-91
2023/04/24 07:50:56;;;;;;;;;;;14.87;13.33;;;;;;2669729;76;20400;-92
2023/04/24 07:54:24;;;;;;;;;;;14.85;13.85;;;;;;2670034;76;20457;-92
2023/04/24 07:57:52;;;;;;;;;;;14.93;14.08;;;;;;2669966;76;20448;-93
2023/04/24 08:01:20;;;;;;;;;;;14.60;13.41;;;;;;2670136;76;20425;-92
2023/04/24 08:04:48;;;;;;;;;;;14.42;13.90;;;;;;2670075;76;20437;-91
2023/04/24 08:08:17;;;;;;;;;;;13.89;13.12;;;;;;2670366;76;20436;-91
2023/04/24 08:11:45;;;;;;;;;;;13.52;13.79;;;;;;2670189;76;20450;-91
2023/04/24 08:15:13;;;;;;;;;;;13.63;15.09;;;;;;2669488;76;20489;-91
2023/04/24 08:18:41;;;;;;;;;;;13.22;14.56;;;;;;2670321;76;20437;-92
2023/04/24 08:22:09;;;;;;;;;;;13.00;15.58;;;;;;2670374;76;20453;-90
2023/04/24 08:25:37;;;;;;;;;;;12.67;15.90;;;;;;2669324;76;20438;-90
2023/04/24 08:29:06;;;;;;;;;;;12.64;16.66;;;;;;2669520;76;20888;-90
2023/04/24 08:32:34;;;;;;;;;;;12.60;15.25;;;;;;2669771;76;20452;-89
2023/04/24 08:36:02;;;;;;;;;;;12.67;15.61;;;;;;2670170;76;20310;-90
2023/04/24 08:39:30;;;;;;;;;;;12.31;15.01;;;;;;2669570;76;20440;-90
2023/04/24 08:42:58;;;;;;;;;;;11.94;16.62;;;;;;2669546;76;20428;-90
2023/04/24 08:46:27;;;;;;;;;;;12.12;14.60;;;;;;2670001;76;20758;-90
2023/04/24 08:49:55;;;;;;;;;;;12.66;13.54;;;;;;2670095;76;20458;-89
2023/04/24 08:53:23;;;;;;;;;;;13.68;11.90;;;;;;2669393;76;20443;-89
2023/04/24 08:56:51;;;;;;;;;;;14.52;8.22;;;;;;2669376;76;20707;-89
2023/04/24 09:00:19;;;;;;;;;;;14.72;5.49;;;;;;2669022;76;20433;-89
2023/04/24 09:03:47;;;;;;;;;;;14.86;5.63;;;;;;2668486;76;20332;-90
2023/04/24 09:07:16;;;;;;;;;;;14.53;4.50;;;;;;2668846;76;20342;-89
2023/04/24 09:10:44;;;;;;;;;;;14.18;4.19;;;;;;2669481;76;20430;-89
2023/04/24 09:14:13;;;;;;;;;;;13.91;4.15;;;;;;2670095;76;20418;-89
2023/04/24 09:17:41;;;;;;;;;;;13.51;2.67;;;;;;2669516;76;20876;-89
2023/04/24 09:21:09;;;;;;;;;;;13.81;3.37;;;;;;2668991;76;20497;-88
2023/04/24 09:24:37;;;;;;;;;;;14.08;2.76;;;;;;2669634;76;20418;-88
2023/04/24 09:28:08;;;;;;;;;;;14.25;0.24;;;;;;2669650;76;20939;-87
2023/04/24 09:31:36;;;;;;;;;;;14.52;0.05;;;;;;2669157;76;20446;-88
2023/04/24 09:35:05;;;;;;;;;;;14.55;-0.43;;;;;;2670030;76;20330;-88
2023/04/24 09:38:33;;;;;;;;;;;14.55;-1.14;;;;;;2669391;76;21000;-88
2023/04/24 09:42:02;;;;;;;;;;;14.78;-1.24;;;;;;2669483;76;20478;-88
2023/04/24 09:45:30;;;;;;;;;;;15.84;-0.79;;;;;;2668679;76;20445;-86
2023/04/24 09:48:58;;;;;;;;;;;16.40;-0.83;;;;;;2668369;76;20456;-87
2023/04/24 09:52:26;;;;;;;;;;;15.71;-4.09;;;;;;2667974;76;20893;-86
2023/04/24 09:55:54;;;;;;;;;;;16.20;-3.46;;;;;;2667910;76;20456;-87
2023/04/24 09:59:22;;;;;;;;;;;16.45;-4.19;;;;;;2667023;76;20460;-86
2023/04/24 10:02:51;;;;;;;;;;;16.41;-4.56;;;;;;2668022;76;20493;-86
2023/04/24 10:06:19;;;;;;;;;;;17.02;-3.32;;;;;;2667378;76;20525;-86
2023/04/24 10:09:48;;;;;;;;;;;16.44;-5.85;;;;;;2667777;76;20892;-85
2023/04/24 10:13:16;;;;;;;;;;;16.78;-5.27;;;;;;2668198;76;20946;-87
2023/04/24 10:16:44;;;;;;;;;;;16.91;118.50;;;;;;2667405;76;20945;-86
2023/04/24 10:20:12;;;;;;;;;;;16.56;117.44;;;;;;2667597;76;20553;-85
2023/04/24 10:23:40;;;;;;;;;;;16.85;117.58;;;;;;2668361;76;20972;-85
2023/04/24 10:27:08;;;;;;;;;;;17.32;117.57;;;;;;2668000;76;20572;-86
2023/04/24 10:30:36;;;;;;;;;;;17.09;116.94;;;;;;2667263;76;20435;-86
2023/04/24 10:34:04;;;;;;;;;;;16.96;117.44;;;;;;2667053;76;20981;-86
2023/04/24 10:37:32;;;;;;;;;;;17.11;118.42;;;;;;2667866;76;20773;-85
2023/04/24 10:41:00;;;;;;;;;;;16.54;116.60;;;;;;2668113;76;20479;-86
2023/04/24 10:44:29;;;;;;;;;;;16.64;116.73;;;;;;2666342;76;20723;-86
2023/04/24 10:47:57;;;;;;;;;;;17.16;116.65;;;;;;2666659;76;20397;-86
2023/04/24 10:51:25;;;;;;;;;;;17.19;116.86;;;;;;2666994;76;20423;-87
2023/04/24 10:54:57;;;;;;;;;;;17.31;117.68;;;;;;2668232;76;20511;-87
2023/04/24 10:58:23;;;;;;;;;;;16.15;-3.35;;;;;;2668914;76;20425;-86
2023/04/24 11:01:51;;;;;;;;;;;14.77;0.39;;;;;;2669346;76;20446;-86
2023/04/24 11:05:20;;;;;;;;;;;14.53;5.20;;;;;;2666580;76;20443;-86
2023/04/24 11:08:48;;;;;;;;;;;14.69;5.96;;;;;;2667414;76;20489;-87
2023/04/24 11:12:17;;;;;;;;;;;14.96;6.54;;;;;;2667995;76;20910;-87
2023/04/24 11:15:45;;;;;;;;;;;14.67;4.51;;;;;;2668617;76;20432;-87
2023/04/24 11:19:13;;;;;;;;;;;15.06;3.58;;;;;;2668745;76;20856;-86
2023/04/24 11:22:41;;;;;;;;;;;14.82;1.94;;;;;;2668526;76;20957;-85
2023/04/24 11:26:09;;;;;;;;;;;14.92;1.96;;;;;;2668489;76;20911;-86
2023/04/24 11:29:37;;;;;;;;;;;14.05;3.57;;;;;;2667912;76;21013;-86
2023/04/24 11:33:06;;;;;;;;;;;13.59;5.13;;;;;;2668224;76;20915;-85
2023/04/24 11:36:36;;;;;;;;;;;13.47;5.77;;;;;;2667940;76;20448;-86
2023/04/24 11:40:04;;;;;;;;;;;13.38;5.34;;;;;;2668021;76;20454;-87
2023/04/24 11:43:32;;;;;;;;;;;13.76;4.67;;;;;;2667122;76;20452;-87
2023/04/24 11:47:00;;;;;;;;;;;14.30;1.37;;;;;;2668008;76;20432;-86
2023/04/24 11:50:29;;;;;;;;;;;14.72;-2.06;;;;;;2666686;76;20439;-86
2023/04/24 11:53:57;;;;;;;;;;;15.04;-3.03;;;;;;2666836;76;20451;-85
2023/04/24 11:57:27;;;;;;;;;;;15.25;-3.82;;;;;;2666374;76;20434;-87
2023/04/24 12:00:55;;;;;;;;;;;15.21;-3.70;;;;;;2665902;76;20476;-84
2023/04/24 12:04:23;;;;;;;;;;;15.36;-3.71;;;;;;2666632;76;20431;-86
2023/04/24 12:07:51;;;;;;;;;;;15.51;-3.06;;;;;;2666124;76;20708;-85
2023/04/24 12:11:19;;;;;;;;;;;15.71;-4.00;;;;;;2665803;76;20475;-86
2023/04/24 12:14:48;;;;;;;;;;;16.26;-4.41;;;;;;2665391;76;20539;-86
2023/04/24 12:18:21;;;;;;;;;;;16.11;-5.82;;;;;;2665941;76;20477;-86
2023/04/24 12:21:46;;;;;;;;;;;16.15;117.86;;;;;;2665621;76;20472;-86
2023/04/24 12:25:14;;;;;;;;;;;16.61;118.10;;;;;;2665703;76;20523;-85
2023/04/24 12:28:42;;;;;;;;;;;16.84;117.07;;;;;;2665590;76;20485;-85
2023/04/24 12:32:10;;;;;;;;;;;16.72;115.04;;;;;;2668435;76;20493;-86
2023/04/24 12:35:38;;;;;;;;;;;17.00;115.10;;;;;;2666431;76;20465;-86
2023/04/24 12:39:07;;;;;;;;;;;17.09;113.15;;;;;;2665917;76;20439;-86
2023/04/24 12:42:35;;;;;;;;;;;16.80;111.42;;;;;;2669732;76;20482;-91
2023/04/24 12:46:03;;;;;;;;;;;16.79;110.63;;;;;;2671483;76;20798;-92
2023/04/24 12:49:31;;;;;;;;;;;16.82;110.50;;;;;;2670581;76;20478;-92
2023/04/24 12:52:59;;;;;;;;;;;16.59;111.35;;;;;;2669692;76;20443;-91
2023/04/24 12:56:27;;;;;;;;;;;16.44;112.06;;;;;;2670563;76;20457;-90
2023/04/24 13:00:00;;;;;;;;;;;16.31;109.69;;;;;;2671333;76;20881;-92
2023/04/24 13:03:25;;;;;;;;;;;16.17;109.40;;;;;;2670285;76;20553;-92
2023/04/24 13:06:53;;;;;;;;;;;16.47;109.09;;;;;;2671393;76;20963;-92
2023/04/24 13:10:21;;;;;;;;;;;16.64;108.96;;;;;;2670340;76;20528;-92
2023/04/24 13:13:50;;;;;;;;;;;16.31;109.61;;;;;;2670114;76;20632;-91
2023/04/24 13:17:18;;;;;;;;;;;16.37;108.65;;;;;;2670351;76;20430;-91
2023/04/24 13:20:47;;;;;;;;;;;16.81;109.14;;;;;;2670383;76;20405;-91
2023/04/24 13:24:15;;;;;;;;;;;17.64;109.36;;;;;;2669845;76;20459;-92
2023/04/24 13:27:43;;;;;;;;;;;18.50;109.10;;;;;;2670586;76;21118;-92
2023/04/24 13:31:11;;;;;;;;;;;18.49;109.02;;;;;;2669768;76;20376;-90
2023/04/24 13:34:40;;;;;;;;;;;17.70;106.36;;;;;;2669160;76;20300;-90
2023/04/24 13:38:08;;;;;;;;;;;17.04;106.53;;;;;;2670893;76;20323;-90
2023/04/24 13:41:36;;;;;;;;;;;16.81;106.20;;;;;;2669931;76;20330;-91
2023/04/24 13:45:06;;;;;;;;;;;17.19;106.37;;;;;;2670469;76;20445;-92
2023/04/24 13:48:34;;;;;;;;;;;16.93;105.37;;;;;;2671728;76;20499;-91
2023/04/24 13:52:05;;;;;;;;;;;17.32;105.34;;;;;;2671931;76;20427;-90
2023/04/24 13:55:36;;;;;;;;;;;17.26;103.00;;;;;;2672045;76;20525;-91
2023/04/24 13:59:04;;;;;;;;;;;17.16;103.81;;;;;;2671803;76;20446;-91
2023/04/24 14:02:36;;;;;;;;;;;16.95;105.24;;;;;;2671933;76;20476;-91
2023/04/24 14:06:06;;;;;;;;;;;17.41;104.98;;;;;;2669634;76;21034;-90
2023/04/24 14:09:34;;;;;;;;;;;18.38;103.21;;;;;;2670456;76;20452;-91
2023/04/24 14:13:06;;;;;;;;;;;17.79;101.11;;;;;;2671071;76;20434;-91
2023/04/24 14:16:34;;;;;;;;;;;18.21;101.44;;;;;;2671035;76;20473;-92
2023/04/24 14:20:03;;;;;;;;;;;18.68;101.32;;;;;;2671449;76;20455;-91
2023/04/24 14:23:40;;;;;;;;;;;18.85;99.00;;;;;;2671456;76;20479;-92
2023/04/24 14:27:05;;;;;;;;;;;18.00;97.94;;;;;;2670102;76;20457;-92
2023/04/24 14:30:41;;;;;;;;;;;17.33;99.92;;;;;;2671574;76;20431;-91
2023/04/24 14:34:03;;;;;;;;;;;16.96;100.82;;;;;;2670650;76;20420;-92
2023/04/24 14:37:36;;;;;;;;;;;20.04;99.77;;;;;;2671573;76;20473;-93
2023/04/24 14:41:11;;;;;;;;;;;23.06;92.22;;;;;;2670322;76;20434;-93
2023/04/24 14:44:36;;;;;;;;;;;21.39;90.64;;;;;;2671598;76;20422;-91
2023/04/24 14:48:07;;;;;;;;;;;20.42;90.76;;;;;;2669599;76;20494;-91
2023/04/24 14:51:35;;;;;;;;;;;18.67;93.13;;;;;;2674416;76;20441;-92
2023/04/24 14:55:04;;;;;;;;;;;18.79;96.65;;;;;;2676408;76;20481;-92
2023/04/24 14:58:32;;;;;;;;;;;18.55;96.19;;;;;;2675906;76;20427;-91
2023/04/24 15:02:03;;;;;;;;;;;18.85;98.39;;;;;;2673720;76;20444;-91
2023/04/24 15:05:30;;;;;;;;;;;21.97;95.81;;;;;;2671655;76;20502;-91
2023/04/24 15:08:59;;;;;;;;;;;24.38;92.21;;;;;;2670471;76;20523;-91
2023/04/24 15:12:28;;;;;;;;;;;20.43;91.89;;;;;;2669356;76;20783;-91
2023/04/24 15:15:56;;;;;;;;;;;18.39;95.63;;;;;;2669966;76;20897;-89
2023/04/24 15:19:24;;;;;;;;;;;17.45;98.67;;;;;;2670894;76;20469;-93
2023/04/24 15:22:53;;;;;;;;;;;16.70;99.35;;;;;;2669606;76;20486;-91
2023/04/24 15:26:21;;;;;;;;;;;16.80;100.32;;;;;;2669703;76;20995;-92
2023/04/24 15:29:53;;;;;;;;;;;17.62;98.91;;;;;;2670504;76;20428;-91
2023/04/24 15:33:21;;;;;;;;;;;16.76;98.77;;;;;;2674206;76;20432;-92
2023/04/24 15:36:49;;;;;;;;;;;17.35;98.68;;;;;;2672900;76;20462;-92
2023/04/24 15:40:17;;;;;;;;;;;18.28;99.64;;;;;;2670045;76;20473;-91
2023/04/24 15:43:45;;;;;;;;;;;18.84;96.76;;;;;;2670986;76;20416;-92
2023/04/24 15:47:13;;;;;;;;;;;21.33;93.70;;;;;;2670635;76;20804;-93
2023/04/24 15:50:42;;;;;;;;;;;23.02;88.09;;;;;;2670558;76;20431;-92
2023/04/24 15:54:10;;;;;;;;;;;24.89;84.10;;;;;;2670460;76;20429;-91
2023/04/24 15:57:40;;;;;;;;;;;20.50;85.97;;;;;;2668724;76;20470;-93
2023/04/24 16:01:08;;;;;;;;;;;20.15;88.16;;;;;;2670862;76;20553;-92
2023/04/24 16:04:36;;;;;;;;;;;23.79;87.53;;;;;;2672136;76;20319;-93
2023/04/24 16:08:12;;;;;;;;;;;18.96;85.58;;;;;;2671168;76;20555;-92
2023/04/24 16:11:42;;;;;;;;;;;18.30;93.09;;;;;;2672955;76;20447;-91
2023/04/24 16:15:12;;;;;;;;;;;23.00;87.97;;;;;;2672521;76;20477;-92
2023/04/24 16:18:49;;;;;;;;;;;22.90;82.85;;;;;;2671634;76;20903;-93
2023/04/24 16:22:20;;;;;;;;;;;19.37;84.85;;;;;;2671925;76;20477;-92
2023/04/24 16:25:45;;;;;;;;;;;16.65;92.52;;;;;;2671519;76;20511;-92
2023/04/24 16:29:23;;;;;;;;;;;15.71;96.15;;;;;;2672455;76;20452;-92
2023/04/24 16:32:47;;;;;;;;;;;16.49;94.36;;;;;;2669271;76;20387;-91
2023/04/24 16:36:19;;;;;;;;;;;17.38;93.88;;;;;;2670540;76;20463;-92
2023/04/24 16:40:09;;;;;;;;;;;21.74;88.92;;;;;;2670144;76;21815;-91
2023/04/24 16:43:26;;;;;;;;;;;24.16;80.74;;;;;;2669013;76;20431;-92
2023/04/24 16:46:55;;;;;;;;;;;24.43;76.41;;;;;;2669319;76;20861;-92
2023/04/24 16:50:23;;;;;;;;;;;24.14;75.18;;;;;;2667308;76;20465;-92
2023/04/24 16:53:51;;;;;;;;;;;23.73;75.76;;;;;;2668588;76;20437;-92
2023/04/24 16:57:22;;;;;;;;;;;24.30;74.92;;;;;;2668337;76;20993;-92
2023/04/24 17:00:50;;;;;;;;;;;23.05;73.38;;;;;;2669059;76;20509;-91
2023/04/24 17:04:18;;;;;;;;;;;23.37;74.64;;;;;;2668392;76;20713;-93
2023/04/24 17:07:46;;;;;;;;;;;24.65;75.16;;;;;;2667914;76;20686;-91
2023/04/24 17:11:15;;;;;;;;;;;18.72;77.50;;;;;;2668876;76;20452;-92
2023/04/24 17:14:43;;;;;;;;;;;16.13;84.87;;;;;;2666898;76;20453;-90
2023/04/24 17:18:11;;;;;;;;;;;20.19;87.03;;;;;;2668684;76;20419;-89
2023/04/24 17:21:39;;;;;;;;;;;21.38;81.74;;;;;;2667573;76;20440;-89
2023/04/24 17:25:07;;;;;;;;;;;16.36;84.06;;;;;;2667352;76;20437;-88
2023/04/24 17:28:35;;;;;;;;;;;14.30;92.92;;;;;;2669399;76;20460;-88
2023/04/24 17:32:03;;;;;;;;;;;13.43;98.00;;;;;;2668281;76;20437;-89
2023/04/24 17:35:32;;;;;;;;;;;12.82;99.59;;;;;;2669012;76;20427;-90
2023/04/24 17:39:00;;;;;;;;;;;12.45;100.99;;;;;;2671213;76;20458;-90
2023/04/24 17:42:28;;;;;;;;;;;12.28;102.49;;;;;;2670972;76;20411;-90
2023/04/24 17:45:58;;;;;;;;;;;11.99;103.79;;;;;;2672475;76;20426;-91
2023/04/24 17:49:26;;;;;;;;;;;11.68;105.74;;;;;;2671730;76;21281;-91
2023/04/24 17:52:54;;;;;;;;;;;11.52;106.83;;;;;;2671869;76;20458;-92
2023/04/24 17:56:24;;;;;;;;;;;11.30;107.70;;;;;;2673034;76;20472;-92
2023/04/24 17:59:52;;;;;;;;;;;11.20;108.24;;;;;;2670367;76;20452;-91
2023/04/24 18:03:20;;;;;;;;;;;10.99;109.10;;;;;;2670563;76;20433;-92
2023/04/24 18:06:51;;;;;;;;;;;10.85;110.05;;;;;;2671306;76;20475;-92
2023/04/24 18:10:24;;;;;;;;;;;10.68;111.03;;;;;;2670116;76;20401;-92
2023/04/24 18:13:53;;;;;;;;;;;10.55;111.62;;;;;;2670436;76;20897;-92
2023/04/24 18:17:22;;;;;;;;;;;10.44;112.00;;;;;;2671432;76;20445;-92
2023/04/24 18:20:50;;;;;;;;;;;10.27;112.44;;;;;;2670975;76;20431;-92
2023/04/24 18:24:21;;;;;;;;;;;10.15;113.10;;;;;;2671349;76;20438;-91
2023/04/24 18:27:48;;;;;;;;;;;10.01;114.03;;;;;;2670995;76;20347;-91
2023/04/24 18:31:16;;;;;;;;;;;9.86;114.69;;;;;;2670576;76;20988;-91
2023/04/24 18:34:44;;;;;;;;;;;9.84;114.82;;;;;;2671049;76;20457;-91
2023/04/24 18:38:12;;;;;;;;;;;9.71;115.45;;;;;;2670676;76;20454;-91
2023/04/24 18:41:40;;;;;;;;;;;9.66;115.41;;;;;;2669448;76;20989;-92
2023/04/24 18:45:08;;;;;;;;;;;9.60;115.70;;;;;;2669933;76;20485;-92
2023/04/24 18:48:37;;;;;;;;;;;9.53;116.17;;;;;;2670520;76;20429;-91
2023/04/24 18:52:05;;;;;;;;;;;9.44;116.35;;;;;;2670899;76;20468;-91
2023/04/24 18:55:34;;;;;;;;;;;9.35;116.12;;;;;;2670562;76;20471;-92
2023/04/24 18:59:02;;;;;;;;;;;9.26;115.98;;;;;;2669551;76;20466;-93
2023/04/24 19:02:32;;;;;;;;;;;9.17;116.03;;;;;;2670170;76;20469;-92
2023/04/24 19:06:00;;;;;;;;;;;9.08;116.33;;;;;;2670303;76;20450;-92
2023/04/24 19:09:28;;;;;;;;;;;9.00;116.39;;;;;;2670475;76;20444;-92
2023/04/24 19:12:58;;;;;;;;;;;8.89;116.34;;;;;;2668525;76;20536;-91
2023/04/24 19:16:26;;;;;;;;;;;8.78;116.54;;;;;;2669419;76;20415;-91
2023/04/24 19:19:54;;;;;;;;;;;8.68;116.69;;;;;;2669867;76;20443;-92
2023/04/24 19:23:22;;;;;;;;;;;8.63;116.98;;;;;;2670736;76;20425;-92
2023/04/24 19:26:50;;;;;;;;;;;8.55;117.17;;;;;;2670552;76;20431;-91
2023/04/24 19:30:19;;;;;;;;;;;8.46;117.37;;;;;;2670642;76;20390;-92
2023/04/24 19:33:47;;;;;;;;;;;8.35;117.34;;;;;;2670138;76;20441;-92
2023/04/24 19:37:15;;;;;;;;;;;8.22;117.47;;;;;;2671261;76;20420;-92
2023/04/24 19:40:43;;;;;;;;;;;8.15;117.61;;;;;;2671843;76;20438;-92
2023/04/24 19:44:13;;;;;;;;;;;8.04;117.82;;;;;;2670555;76;20431;-92
2023/04/24 19:47:42;;;;;;;;;;;8.00;117.92;;;;;;2671049;76;20811;-92
2023/04/24 19:51:10;;;;;;;;;;;7.93;118.11;;;;;;2671068;76;20443;-92
2023/04/24 19:54:38;;;;;;;;;;;7.86;118.37;;;;;;2669009;76;20481;-92
2023/04/24 19:58:07;;;;;;;;;;;7.77;118.46;;;;;;2666388;76;20412;-92
2023/04/24 20:01:35;;;;;;;;;;;7.72;118.50;;;;;;2667771;76;20478;-92
2023/04/24 20:05:03;;;;;;;;;;;7.68;118.50;;;;;;2669076;76;20485;-92
2023/04/24 20:08:31;;;;;;;;;;;7.60;118.69;;;;;;2668108;76;20468;-92
2023/04/24 20:12:00;;;;;;;;;;;7.58;118.96;;;;;;2668321;76;20915;-92
2023/04/24 20:15:28;;;;;;;;;;;7.52;-5.78;;;;;;2670387;76;20468;-93
2023/04/24 20:18:56;;;;;;;;;;;7.49;-5.49;;;;;;2668574;76;20473;-92
2023/04/24 20:22:24;;;;;;;;;;;7.48;-5.36;;;;;;2667219;76;20431;-92